Time;durP1;ratioP1;P1;durP2;ratioP2;P2;SDS_P1;SDS_P2;PMS_P1;PMS_P2;Temp;Humidity;BMP_temperature;BMP_pressure;BME280_temperature;BME280_humidity;BME280_pressure;Samples;Min_cycle;Max_cycle;Signal;HPM_P1;HPM_P2
2021/05/12 00:01:44;;;;;;;3.10;2.80;;;15.00;99.90;;;;;;4878174;29;20033;-85
2021/05/12 00:04:10;;;;;;;3.33;3.03;;;15.00;99.90;;;;;;4862823;29;20473;-85
2021/05/12 00:06:36;;;;;;;3.83;3.53;;;15.00;99.90;;;;;;4862624;29;20029;-85
2021/05/12 00:09:02;;;;;;;3.55;3.33;;;15.00;99.90;;;;;;4862651;29;20071;-85
2021/05/12 00:11:27;;;;;;;4.88;4.22;;;15.00;99.90;;;;;;4879342;29;20033;-85
2021/05/12 00:13:53;;;;;;;5.32;4.32;;;15.00;99.90;;;;;;4862450;29;20270;-85
2021/05/12 00:16:19;;;;;;;3.58;3.28;;;15.00;99.90;;;;;;4862408;29;20093;-85
2021/05/12 00:18:46;;;;;;;3.60;3.30;;;15.00;99.90;;;;;;4862480;29;20040;-85
2021/05/12 00:21:22;;;;;;;5.07;3.17;;;15.00;99.90;;;;;;4862278;29;20033;-85
2021/05/12 00:23:57;;;;;;;2.38;2.17;;;15.00;99.90;;;;;;4879297;29;20029;-85
2021/05/12 00:26:23;;;;;;;2.20;2.00;;;15.00;99.90;;;;;;4862221;29;20446;-85
2021/05/12 00:28:49;;;;;;;3.58;2.75;;;15.10;99.90;;;;;;4879039;29;20040;-85
2021/05/12 00:31:15;;;;;;;7.57;4.57;;;15.00;99.90;;;;;;4862235;29;20035;-84
2021/05/12 00:33:41;;;;;;;8.05;3.80;;;15.10;99.90;;;;;;4862169;29;20037;-85
2021/05/12 00:36:07;;;;;;;3.53;1.95;;;15.10;99.90;;;;;;4862195;29;20040;-85
2021/05/12 00:38:33;;;;;;;2.33;2.20;;;15.00;99.90;;;;;;4861913;29;20301;-84
2021/05/12 00:40:58;;;;;;;2.30;2.00;;;15.00;99.90;;;;;;4862209;29;20031;-85
2021/05/12 00:43:24;;;;;;;4.38;2.17;;;15.00;99.90;;;;;;4861980;29;20374;-85
2021/05/12 00:45:50;;;;;;;1.77;1.52;;;15.00;99.90;;;;;;4878654;29;20065;-85
2021/05/12 00:48:15;;;;;;;1.50;1.40;;;15.00;99.90;;;;;;4877453;29;20029;-84
2021/05/12 00:50:41;;;;;;;2.28;1.63;;;15.00;99.90;;;;;;4878614;29;20033;-84
2021/05/12 00:53:07;;;;;;;2.55;2.20;;;15.00;99.90;;;;;;4861825;29;20120;-84
2021/05/12 00:55:33;;;;;;;2.45;2.25;;;15.00;99.90;;;;;;4861707;29;20033;-85
2021/05/12 00:58:00;;;;;;;3.22;2.92;;;14.90;99.90;;;;;;4861718;29;20412;-84
2021/05/12 01:00:28;;;;;;;2.92;2.70;;;14.90;99.90;;;;;;4878246;29;20033;-84
2021/05/12 01:02:54;;;;;;;2.22;2.13;;;14.90;99.90;;;;;;4878468;29;20069;-84
2021/05/12 01:05:40;;;;;;;2.45;2.08;;;15.00;99.90;;;;;;4878351;29;20029;-84
2021/05/12 01:08:06;;;;;;;3.13;2.13;;;14.90;99.90;;;;;;4861475;29;20075;-83
2021/05/12 01:10:33;;;;;;;1.45;1.35;;;15.00;99.90;;;;;;4878317;29;20048;-83
2021/05/12 01:13:00;;;;;;;1.08;1.08;;;14.90;99.90;;;;;;4861544;29;20511;-83
2021/05/12 01:15:29;;;;;;;0.80;0.80;;;14.90;99.90;;;;;;4861642;29;20032;-83
2021/05/12 01:18:18;;;;;;;1.90;0.90;;;14.90;99.90;;;;;;4879250;29;20029;-83
2021/05/12 01:20:53;;;;;;;0.90;0.90;;;14.90;99.90;;;;;;4861468;29;20559;-83
2021/05/12 01:23:22;;;;;;;2.22;1.10;;;14.80;99.90;;;;;;4861361;29;20025;-83
2021/05/12 01:25:49;;;;;;;1.05;1.05;;;14.90;99.90;;;;;;4877884;29;20047;-83
2021/05/12 01:28:17;;;;;;;1.20;1.10;;;14.90;99.90;;;;;;4861342;29;20493;-83
2021/05/12 01:31:10;;;;;;;1.30;1.20;;;14.90;99.90;;;;;;4861292;29;20033;-83
2021/05/12 01:33:40;;;;;;;2.03;1.13;;;14.90;99.90;;;;;;4860868;29;20033;-83
2021/05/12 01:36:07;;;;;;;2.97;1.10;;;14.80;99.90;;;;;;4878079;29;20029;-83
2021/05/12 01:38:34;;;;;;;0.57;0.57;;;14.80;99.90;;;;;;4877866;29;20057;-84
2021/05/12 01:41:01;;;;;;;0.73;0.73;;;14.80;99.90;;;;;;4861072;29;20025;-83
2021/05/12 01:43:29;;;;;;;0.75;0.75;;;14.80;99.90;;;;;;4877895;29;20030;-83
2021/05/12 01:45:55;;;;;;;0.70;0.70;;;14.80;99.90;;;;;;4877855;29;20057;-83
2021/05/12 01:48:20;;;;;;;0.73;0.73;;;14.80;99.90;;;;;;4860972;29;20222;-84
2021/05/12 01:50:46;;;;;;;0.70;0.70;;;14.80;99.90;;;;;;4860992;29;20168;-84
2021/05/12 01:53:13;;;;;;;0.85;0.70;;;14.80;99.90;;;;;;4877924;29;20060;-83
2021/05/12 01:55:39;;;;;;;0.70;0.70;;;14.80;99.90;;;;;;4877510;29;20033;-83
2021/05/12 01:58:05;;;;;;;0.70;0.68;;;14.80;99.90;;;;;;4860922;29;20489;-83
2021/05/12 02:00:37;;;;;;;0.55;0.55;;;14.80;99.90;;;;;;4863773;29;20160;-84
2021/05/12 02:03:05;;;;;;;0.50;0.50;;;14.80;99.90;;;;;;4881626;29;20025;-83
2021/05/12 02:05:31;;;;;;;0.65;0.30;;;14.80;99.90;;;;;;4864633;29;20029;-83
2021/05/12 02:07:59;;;;;;;0.80;0.40;;;14.80;99.90;;;;;;4881403;29;20033;-83
2021/05/12 02:10:26;;;;;;;0.38;0.38;;;14.80;99.90;;;;;;4881292;29;20032;-83
2021/05/12 02:12:53;;;;;;;0.30;0.30;;;14.70;99.90;;;;;;4881397;29;20036;-83
2021/05/12 02:15:19;;;;;;;0.35;0.35;;;14.70;99.90;;;;;;4864488;29;20061;-83
2021/05/12 02:17:45;;;;;;;0.50;0.50;;;14.80;99.90;;;;;;4881192;29;20035;-84
2021/05/12 02:20:13;;;;;;;1.30;0.43;;;14.80;99.90;;;;;;4881357;29;20493;-83
2021/05/12 02:22:39;;;;;;;1.13;0.30;;;14.80;99.90;;;;;;4881303;29;20027;-83
2021/05/12 02:25:07;;;;;;;0.40;0.40;;;14.80;99.90;;;;;;4880962;29;20120;-83
2021/05/12 02:27:32;;;;;;;0.50;0.50;;;14.70;99.90;;;;;;4864333;29;20074;-83
2021/05/12 02:30:01;;;;;;;1.27;0.50;;;14.80;99.90;;;;;;4881149;29;20561;-83
2021/05/12 02:32:30;;;;;;;0.40;0.40;;;14.70;99.90;;;;;;4881011;29;20064;-83
2021/05/12 02:34:57;;;;;;;0.40;0.30;;;14.70;99.90;;;;;;4863867;29;20508;-83
2021/05/12 02:37:24;;;;;;;0.57;0.32;;;14.80;99.90;;;;;;4864152;29;20033;-83
2021/05/12 02:39:50;;;;;;;0.20;0.20;;;14.80;99.90;;;;;;4880917;29;20049;-82
2021/05/12 02:42:16;;;;;;;0.45;0.35;;;14.80;99.90;;;;;;4864284;29;20029;-83
2021/05/12 02:44:43;;;;;;;0.45;0.20;;;14.70;99.90;;;;;;4880655;29;20477;-83
2021/05/12 02:47:09;;;;;;;0.30;0.20;;;14.70;99.90;;;;;;4864107;29;20405;-83
2021/05/12 02:49:35;;;;;;;0.20;0.20;;;14.70;99.90;;;;;;4880668;29;20025;-83
2021/05/12 02:52:02;;;;;;;0.30;0.30;;;14.60;99.90;;;;;;4880712;29;20044;-83
2021/05/12 02:54:27;;;;;;;0.10;0.10;;;14.70;99.90;;;;;;4863674;29;20033;-83
2021/05/12 02:56:53;;;;;;;1.27;0.40;;;14.60;99.90;;;;;;4880539;29;20028;-83
2021/05/12 02:59:20;;;;;;;0.30;0.30;;;14.60;99.90;;;;;;4863785;29;20025;-83
2021/05/12 03:01:46;;;;;;;0.22;0.20;;;14.60;99.90;;;;;;4863969;29;20028;-83
2021/05/12 03:04:12;;;;;;;3.45;0.20;;;14.50;99.90;;;;;;4880499;29;20166;-83
2021/05/12 03:06:38;;;;;;;0.55;0.50;;;14.50;99.90;;;;;;4880399;29;20033;-83
2021/05/12 03:09:06;;;;;;;0.20;0.20;;;14.50;99.90;;;;;;4880561;29;20033;-83
2021/05/12 03:11:33;;;;;;;0.73;0.28;;;14.50;99.90;;;;;;4894543;29;20029;-83
2021/05/12 03:13:59;;;;;;;0.10;0.10;;;14.50;99.90;;;;;;4898966;29;20060;-82
2021/05/12 03:16:24;;;;;;;0.10;0.10;;;14.50;99.90;;;;;;4882320;29;20032;-82
2021/05/12 03:18:50;;;;;;;0.10;0.10;;;14.30;99.90;;;;;;4882221;29;20401;-83
2021/05/12 03:21:16;;;;;;;0.10;0.10;;;14.20;99.90;;;;;;4882018;29;20029;-82
2021/05/12 03:23:42;;;;;;;0.43;0.20;;;14.10;99.90;;;;;;4898828;29;20503;-83
2021/05/12 03:26:08;;;;;;;0.20;0.10;;;14.20;99.90;;;;;;4868750;29;20409;-82
2021/05/12 03:28:33;;;;;;;0.10;0.10;;;14.10;99.90;;;;;;4879975;29;20163;-82
2021/05/12 03:30:59;;;;;;;0.10;0.10;;;14.10;99.90;;;;;;4880316;29;20055;-82
2021/05/12 03:33:25;;;;;;;0.10;0.10;;;14.10;99.90;;;;;;4880110;29;20021;-82
2021/05/12 03:35:54;;;;;;;0.10;0.10;;;14.10;99.90;;;;;;4880070;29;20382;-83
2021/05/12 03:38:19;;;;;;;0.10;0.10;;;14.00;99.90;;;;;;4880089;29;20025;-83
2021/05/12 03:40:45;;;;;;;2.53;0.10;;;14.00;99.90;;;;;;4863399;29;20029;-82
2021/05/12 03:43:11;;;;;;;0.20;0.20;;;13.90;99.90;;;;;;4879835;29;20029;-83
2021/05/12 03:45:37;;;;;;;0.13;0.10;;;14.00;99.90;;;;;;4863213;29;20064;-83
2021/05/12 03:48:06;;;;;;;0.10;0.10;;;14.00;99.90;;;;;;4878742;29;20075;-83
2021/05/12 03:50:31;;;;;;;0.15;0.10;;;14.00;99.90;;;;;;4879494;29;20541;-82
2021/05/12 03:52:57;;;;;;;0.20;0.20;;;14.00;99.90;;;;;;4862828;29;20029;-83
2021/05/12 03:55:24;;;;;;;0.20;0.20;;;13.90;99.90;;;;;;4879586;29;20052;-83
2021/05/12 03:57:50;;;;;;;0.10;0.10;;;13.90;99.90;;;;;;4879417;29;20044;-83
2021/05/12 04:00:16;;;;;;;0.20;0.10;;;13.80;99.90;;;;;;4862662;29;20032;-83
2021/05/12 04:02:43;;;;;;;0.00;0.00;;;13.80;99.90;;;;;;4862914;29;20393;-84
2021/05/12 04:05:13;;;;;;;0.17;0.17;;;13.90;99.90;;;;;;4879316;29;20022;-83
2021/05/12 04:07:39;;;;;;;0.13;0.13;;;14.00;99.90;;;;;;4879278;29;20121;-83
2021/05/12 04:10:06;;;;;;;0.10;0.10;;;14.00;99.90;;;;;;4862576;29;20523;-83
2021/05/12 04:12:32;;;;;;;0.10;0.10;;;14.10;99.90;;;;;;4862519;29;20085;-83
2021/05/12 04:14:58;;;;;;;0.08;0.08;;;14.10;99.90;;;;;;4862414;29;20037;-83
2021/05/12 04:17:26;;;;;;;0.10;0.10;;;14.20;99.90;;;;;;4879000;29;20033;-83
2021/05/12 04:19:51;;;;;;;0.10;0.10;;;14.30;99.90;;;;;;4879080;29;20397;-83
2021/05/12 04:22:17;;;;;;;0.10;0.10;;;14.30;99.90;;;;;;4861998;29;20025;-83
2021/05/12 04:24:43;;;;;;;0.10;0.10;;;14.20;99.90;;;;;;4861547;29;20049;-83
2021/05/12 04:27:10;;;;;;;0.10;0.10;;;14.30;99.90;;;;;;4873610;29;20048;-84
2021/05/12 04:29:36;;;;;;;1.00;0.30;;;14.30;99.90;;;;;;4868722;29;20121;-84
2021/05/12 04:32:04;;;;;;;0.10;0.10;;;14.30;99.90;;;;;;4883791;29;20486;-83
2021/05/12 04:34:29;;;;;;;0.40;0.40;;;14.30;99.90;;;;;;4870052;29;20390;-83
2021/05/12 04:36:58;;;;;;;0.10;0.10;;;14.30;99.90;;;;;;4868623;29;20027;-83
2021/05/12 04:39:27;;;;;;;0.05;0.05;;;14.30;99.90;;;;;;4852583;29;20021;-83
2021/05/12 04:41:53;;;;;;;0.98;0.10;;;14.30;99.90;;;;;;4869329;29;20112;-83
2021/05/12 04:44:22;;;;;;;0.10;0.10;;;14.30;99.90;;;;;;4869772;29;20167;-84
2021/05/12 04:46:49;;;;;;;1.35;0.20;;;14.30;99.90;;;;;;4851327;29;20029;-83
2021/05/12 04:49:15;;;;;;;0.10;0.10;;;14.30;99.90;;;;;;4844697;29;20084;-83
2021/05/12 04:51:41;;;;;;;0.20;0.20;;;14.20;99.90;;;;;;4861440;29;20056;-83
2021/05/12 04:54:07;;;;;;;0.80;0.10;;;14.20;99.90;;;;;;4861263;29;20038;-83
2021/05/12 04:56:34;;;;;;;0.10;0.10;;;14.30;99.90;;;;;;4852831;29;20041;-83
2021/05/12 04:59:00;;;;;;;0.10;0.10;;;14.30;99.90;;;;;;4869696;29;20033;-83
2021/05/12 05:01:26;;;;;;;0.10;0.10;;;14.30;99.90;;;;;;4859775;29;20029;-83
2021/05/12 05:03:52;;;;;;;0.10;0.10;;;14.30;99.90;;;;;;4861120;29;20021;-83
2021/05/12 05:06:17;;;;;;;0.40;0.10;;;14.30;99.90;;;;;;4871530;29;20029;-84
2021/05/12 05:08:44;;;;;;;0.57;0.20;;;14.30;99.90;;;;;;4883384;29;20068;-84
2021/05/12 05:11:10;;;;;;;0.10;0.10;;;14.40;99.90;;;;;;4870824;29;20040;-84
2021/05/12 05:13:36;;;;;;;0.10;0.10;;;14.40;99.90;;;;;;4861013;29;20402;-83
2021/05/12 05:16:02;;;;;;;0.57;0.20;;;14.40;99.90;;;;;;4844404;29;20037;-83
2021/05/12 05:18:30;;;;;;;0.10;0.10;;;14.50;99.90;;;;;;4860984;29;20025;-83
2021/05/12 05:20:56;;;;;;;0.10;0.10;;;14.50;99.90;;;;;;4860457;29;20033;-84
2021/05/12 05:23:24;;;;;;;0.10;0.10;;;14.50;99.90;;;;;;4876751;29;20083;-77
2021/05/12 05:25:50;;;;;;;0.32;0.15;;;14.50;99.90;;;;;;4875775;29;20049;-77
2021/05/12 05:28:16;;;;;;;0.10;0.10;;;14.50;99.90;;;;;;4875967;29;20473;-77
2021/05/12 05:30:42;;;;;;;0.10;0.10;;;14.60;99.90;;;;;;4875963;29;20040;-78
2021/05/12 05:33:08;;;;;;;0.10;0.10;;;14.60;99.90;;;;;;4875870;29;20022;-77
2021/05/12 05:35:33;;;;;;;0.20;0.20;;;14.70;99.90;;;;;;4875208;29;20039;-77
2021/05/12 05:37:59;;;;;;;0.10;0.10;;;14.70;99.90;;;;;;4859742;29;20028;-77
2021/05/12 05:40:28;;;;;;;0.20;0.20;;;14.70;99.90;;;;;;4861027;29;20029;-77
2021/05/12 05:42:58;;;;;;;0.10;0.10;;;14.80;99.90;;;;;;4877692;29;20060;-77
2021/05/12 05:45:25;;;;;;;0.10;0.10;;;14.80;99.90;;;;;;4860910;29;20033;-77
2021/05/12 05:47:51;;;;;;;0.10;0.10;;;14.80;99.90;;;;;;4877745;29;20096;-77
2021/05/12 05:50:18;;;;;;;0.20;0.20;;;14.80;99.90;;;;;;4877859;29;20108;-77
2021/05/12 05:52:43;;;;;;;0.10;0.10;;;14.90;99.90;;;;;;4860837;29;20469;-78
2021/05/12 05:55:10;;;;;;;0.10;0.10;;;14.90;99.90;;;;;;4861069;29;20072;-77
2021/05/12 05:57:36;;;;;;;0.52;0.20;;;14.80;99.90;;;;;;4877598;29;20386;-78
2021/05/12 06:00:04;;;;;;;0.10;0.10;;;14.90;99.90;;;;;;4877542;29;20025;-78
2021/05/12 06:02:30;;;;;;;0.10;0.10;;;14.90;99.90;;;;;;4860811;29;20029;-77
2021/05/12 06:04:56;;;;;;;0.20;0.20;;;14.90;99.90;;;;;;4877648;29;20033;-78
2021/05/12 06:07:22;;;;;;;0.80;0.20;;;14.80;99.90;;;;;;4860830;29;20116;-77
2021/05/12 06:09:48;;;;;;;0.10;0.10;;;14.80;99.90;;;;;;4860803;29;20129;-77
2021/05/12 06:12:14;;;;;;;0.10;0.10;;;14.80;99.90;;;;;;4860963;29;20505;-77
2021/05/12 06:14:40;;;;;;;0.10;0.10;;;14.90;99.90;;;;;;4876320;29;20040;-77
2021/05/12 06:17:06;;;;;;;0.17;0.17;;;14.90;99.90;;;;;;4860556;29;20443;-77
2021/05/12 06:19:31;;;;;;;0.10;0.10;;;15.00;99.90;;;;;;4859875;29;20500;-77
2021/05/12 06:21:57;;;;;;;0.10;0.10;;;15.00;99.90;;;;;;4877298;29;20017;-77
2021/05/12 06:24:23;;;;;;;0.10;0.10;;;15.00;99.90;;;;;;4860712;29;20033;-77
2021/05/12 06:26:50;;;;;;;0.10;0.10;;;15.00;99.90;;;;;;4860459;29;20041;-77
2021/05/12 06:29:17;;;;;;;0.10;0.10;;;15.00;99.90;;;;;;4877338;29;20039;-77
2021/05/12 06:31:43;;;;;;;0.10;0.10;;;15.00;99.90;;;;;;4877325;29;20497;-77
2021/05/12 06:34:09;;;;;;;0.10;0.10;;;15.00;99.90;;;;;;4877204;29;20037;-77
2021/05/12 06:36:35;;;;;;;0.10;0.10;;;15.10;99.90;;;;;;4860735;29;20033;-77
2021/05/12 06:39:00;;;;;;;0.88;0.10;;;15.10;99.90;;;;;;4877299;29;20100;-77
2021/05/12 06:41:29;;;;;;;0.20;0.20;;;15.10;99.90;;;;;;4877340;29;20036;-77
2021/05/12 06:43:56;;;;;;;0.73;0.15;;;15.10;99.90;;;;;;4860505;29;20029;-77
2021/05/12 06:46:22;;;;;;;0.20;0.20;;;15.10;99.90;;;;;;4879644;29;20498;-76
2021/05/12 06:48:48;;;;;;;0.20;0.20;;;15.20;99.90;;;;;;4880704;29;20071;-77
2021/05/12 06:51:13;;;;;;;0.22;0.20;;;15.20;99.90;;;;;;4864094;29;20021;-76
2021/05/12 06:53:39;;;;;;;0.25;0.20;;;15.20;99.90;;;;;;4863867;29;20035;-76
2021/05/12 06:56:05;;;;;;;0.20;0.20;;;15.30;99.90;;;;;;4880459;29;20033;-77
2021/05/12 06:58:34;;;;;;;0.30;0.30;;;15.30;99.90;;;;;;4863912;29;20097;-77
2021/05/12 07:00:59;;;;;;;0.32;0.25;;;15.40;99.90;;;;;;4863767;29;20524;-77
2021/05/12 07:03:25;;;;;;;0.55;0.30;;;15.40;99.90;;;;;;4880462;29;20056;-76
2021/05/12 07:05:55;;;;;;;0.52;0.10;;;15.30;99.90;;;;;;4863664;29;20108;-77
2021/05/12 07:08:21;;;;;;;0.20;0.20;;;15.40;99.90;;;;;;4880536;29;20028;-77
2021/05/12 07:10:48;;;;;;;0.20;0.20;;;15.40;99.90;;;;;;4869332;29;20131;-77
2021/05/12 07:13:13;;;;;;;0.20;0.20;;;15.40;99.90;;;;;;4899075;29;20024;-77
2021/05/12 07:15:39;;;;;;;0.10;0.10;;;15.40;99.90;;;;;;4882033;29;20094;-77
2021/05/12 07:18:05;;;;;;;0.13;0.13;;;15.40;99.90;;;;;;4882159;29;20055;-77
2021/05/12 07:20:31;;;;;;;0.32;0.10;;;15.40;99.90;;;;;;4881918;29;20071;-77
2021/05/12 07:23:08;;;;;;;1.20;0.15;;;15.40;99.90;;;;;;4882064;29;20032;-77
2021/05/12 07:25:34;;;;;;;0.17;0.17;;;15.40;99.90;;;;;;4872659;29;20100;-77
2021/05/12 07:28:01;;;;;;;1.50;0.20;;;15.50;99.90;;;;;;4879960;29;20074;-77
2021/05/12 07:30:27;;;;;;;0.22;0.22;;;15.50;99.90;;;;;;4879940;29;20060;-77
2021/05/12 07:32:52;;;;;;;0.43;0.20;;;15.50;99.90;;;;;;4879886;29;20060;-77
2021/05/12 07:35:18;;;;;;;0.28;0.28;;;15.50;99.90;;;;;;4863117;29;20073;-77
2021/05/12 07:37:44;;;;;;;1.05;0.60;;;15.60;99.90;;;;;;4879571;29;20033;-76
2021/05/12 07:40:11;;;;;;;0.65;0.40;;;15.60;99.90;;;;;;4879627;29;20032;-77
2021/05/12 07:42:39;;;;;;;0.20;0.20;;;15.60;99.90;;;;;;4879740;29;20080;-76
2021/05/12 07:45:06;;;;;;;0.30;0.30;;;15.60;99.90;;;;;;4879508;29;20101;-77
2021/05/12 07:47:31;;;;;;;0.50;0.43;;;15.60;99.90;;;;;;4878431;29;20489;-76
2021/05/12 07:50:00;;;;;;;1.20;0.40;;;15.70;99.90;;;;;;4862491;29;20033;-75
2021/05/12 07:52:26;;;;;;;1.48;0.60;;;15.60;99.90;;;;;;4876166;29;20481;-75
2021/05/12 07:54:54;;;;;;;1.08;0.98;;;15.70;99.90;;;;;;4878302;29;20031;-76
2021/05/12 07:57:20;;;;;;;0.63;0.50;;;15.70;99.90;;;;;;4876179;29;20035;-77
2021/05/12 07:59:46;;;;;;;0.88;0.40;;;15.70;99.90;;;;;;4894418;29;20028;-75
2021/05/12 08:02:11;;;;;;;0.40;0.40;;;15.70;99.90;;;;;;4893706;29;20080;-76
2021/05/12 08:04:37;;;;;;;0.65;0.52;;;15.80;99.90;;;;;;4877297;29;20032;-76
2021/05/12 08:07:04;;;;;;;0.65;0.65;;;15.80;99.90;;;;;;4876951;29;20235;-76
2021/05/12 08:09:32;;;;;;;0.47;0.45;;;15.80;99.90;;;;;;4890242;29;20106;-77
2021/05/12 08:11:59;;;;;;;1.73;1.33;;;15.80;99.90;;;;;;4858759;29;20056;-75
2021/05/12 08:14:24;;;;;;;0.60;0.60;;;15.80;99.90;;;;;;4874798;29;20021;-75
2021/05/12 08:16:50;;;;;;;0.77;0.70;;;15.80;99.90;;;;;;4874436;29;20104;-76
2021/05/12 08:19:16;;;;;;;2.10;0.77;;;15.80;99.90;;;;;;4879504;29;20047;-76
2021/05/12 08:21:46;;;;;;;4.78;3.10;;;15.80;99.90;;;;;;4882034;29;20032;-76
2021/05/12 08:24:12;;;;;;;6.65;4.45;;;15.80;99.90;;;;;;4865800;29;20024;-76
2021/05/12 08:26:41;;;;;;;8.80;5.53;;;15.80;99.90;;;;;;4883058;29;20232;-76
2021/05/12 08:29:07;;;;;;;5.28;3.85;;;15.90;99.90;;;;;;4866329;29;20060;-76
2021/05/12 08:31:44;;;;;;;1.48;1.38;;;16.00;99.90;;;;;;4864969;29;20120;-75
2021/05/12 08:34:10;;;;;;;2.20;1.05;;;16.00;99.90;;;;;;4866571;29;20085;-75
2021/05/12 08:36:35;;;;;;;1.15;1.10;;;16.00;99.90;;;;;;4882858;29;20028;-75
2021/05/12 08:39:01;;;;;;;1.02;0.73;;;16.10;99.90;;;;;;4883627;29;20037;-76
2021/05/12 08:41:27;;;;;;;0.80;0.80;;;16.10;99.90;;;;;;4867446;29;20111;-76
2021/05/12 08:43:53;;;;;;;1.85;0.50;;;16.20;99.90;;;;;;4864572;29;20020;-76
2021/05/12 08:46:19;;;;;;;0.32;0.30;;;16.20;99.90;;;;;;4867140;29;20024;-76
2021/05/12 08:48:47;;;;;;;1.85;0.68;;;16.30;99.90;;;;;;4882654;29;20060;-76
2021/05/12 08:51:13;;;;;;;1.42;0.93;;;16.30;99.90;;;;;;4865783;29;20563;-77
2021/05/12 08:53:39;;;;;;;0.40;0.32;;;16.40;99.90;;;;;;4881170;29;20041;-76
2021/05/12 08:56:06;;;;;;;0.55;0.32;;;16.40;99.90;;;;;;4865624;29;20103;-77
2021/05/12 08:58:33;;;;;;;0.55;0.55;;;16.40;99.90;;;;;;4865359;29;20036;-76
2021/05/12 09:00:59;;;;;;;0.40;0.40;;;16.50;99.90;;;;;;4883821;29;20020;-77
2021/05/12 09:03:29;;;;;;;3.78;0.35;;;16.50;99.90;;;;;;4881834;29;20060;-76
2021/05/12 09:05:58;;;;;;;0.40;0.40;;;16.60;99.90;;;;;;4875791;29;20477;-76
2021/05/12 09:08:27;;;;;;;0.75;0.45;;;16.60;99.90;;;;;;4889273;29;20032;-76
2021/05/12 09:10:57;;;;;;;0.30;0.30;;;16.70;99.90;;;;;;4875155;29;20032;-75
2021/05/12 09:13:31;;;;;;;1.75;0.50;;;16.70;99.90;;;;;;4875442;29;20075;-76
2021/05/12 09:16:28;;;;;;;0.40;0.40;;;16.60;99.90;;;;;;4875378;29;20447;-76
2021/05/12 09:19:09;;;;;;;1.70;0.32;;;16.60;99.90;;;;;;4885020;29;20081;-77
2021/05/12 09:21:56;;;;;;;0.75;0.40;;;16.70;99.90;;;;;;4874353;29;20024;-76
2021/05/12 09:24:33;;;;;;;0.30;0.30;;;16.70;99.90;;;;;;4856937;29;20390;-75
2021/05/12 09:27:10;;;;;;;0.63;0.22;;;16.70;99.90;;;;;;4838552;29;20118;-76
2021/05/12 09:29:41;;;;;;;0.38;0.38;;;16.70;99.90;;;;;;4838644;29;20037;-76
2021/05/12 09:32:16;;;;;;;7.70;0.47;;;16.70;99.90;;;;;;4856080;29;20057;-75
2021/05/12 09:35:03;;;;;;;0.40;0.30;;;16.80;99.90;;;;;;4839492;29;20366;-75
2021/05/12 09:37:37;;;;;;;2.35;0.50;;;16.80;99.90;;;;;;4856098;29;20033;-76
2021/05/12 09:40:06;;;;;;;1.85;0.85;;;16.90;99.90;;;;;;4839599;29;20116;-75
2021/05/12 09:42:32;;;;;;;3.58;0.90;;;17.00;99.90;;;;;;4856013;29;20022;-76
2021/05/12 09:45:19;;;;;;;5.15;1.95;;;17.10;99.90;;;;;;4838438;29;20431;-75
2021/05/12 09:47:58;;;;;;;2.08;1.80;;;17.10;99.90;;;;;;4855227;29;20089;-75
2021/05/12 09:50:27;;;;;;;2.03;1.52;;;17.10;99.90;;;;;;4854834;29;20029;-76
2021/05/12 09:52:55;;;;;;;2.72;1.40;;;17.10;99.90;;;;;;4855003;29;20036;-75
2021/05/12 09:55:32;;;;;;;1.85;1.40;;;17.00;99.90;;;;;;4862577;29;20081;-76
2021/05/12 09:58:02;;;;;;;1.88;1.15;;;17.00;99.90;;;;;;4857398;29;20093;-76
2021/05/12 10:00:28;;;;;;;3.17;1.30;;;17.00;99.90;;;;;;4873374;29;20277;-76
2021/05/12 10:02:56;;;;;;;2.55;1.40;;;17.00;99.90;;;;;;4873172;29;20081;-76
2021/05/12 10:05:22;;;;;;;2.70;1.58;;;17.00;99.90;;;;;;4857319;29;20514;-76
2021/05/12 10:07:52;;;;;;;1.25;1.15;;;17.10;99.90;;;;;;4873286;29;20438;-76
2021/05/12 10:10:36;;;;;;;2.20;1.33;;;17.10;99.90;;;;;;4856359;29;20074;-75
2021/05/12 10:13:02;;;;;;;3.28;1.38;;;17.20;99.90;;;;;;4873305;29;20108;-75
2021/05/12 10:15:28;;;;;;;1.70;1.60;;;17.30;99.90;;;;;;4856954;29;20032;-75
2021/05/12 10:17:54;;;;;;;1.73;1.35;;;17.30;99.90;;;;;;4873747;29;20033;-76
2021/05/12 10:20:20;;;;;;;4.30;1.20;;;17.30;99.90;;;;;;4856866;29;20060;-75
2021/05/12 10:22:47;;;;;;;2.78;1.25;;;17.30;99.90;;;;;;4877670;29;20473;-75
2021/05/12 10:25:13;;;;;;;1.85;1.40;;;17.40;99.90;;;;;;4876575;29;20037;-75
2021/05/12 10:27:40;;;;;;;2.03;1.50;;;17.50;99.90;;;;;;4860199;29;20037;-76
2021/05/12 10:30:07;;;;;;;1.48;1.38;;;17.50;99.90;;;;;;4876102;29;20033;-76
2021/05/12 10:32:35;;;;;;;1.20;1.20;;;17.60;99.90;;;;;;4876770;29;20107;-76
2021/05/12 10:35:04;;;;;;;1.00;1.00;;;17.60;99.90;;;;;;4859754;29;20033;-76
2021/05/12 10:37:32;;;;;;;3.53;1.13;;;17.70;99.90;;;;;;4860770;29;20132;-76
2021/05/12 10:40:04;;;;;;;1.25;1.15;;;17.80;99.90;;;;;;4859741;29;20060;-75
2021/05/12 10:48:44;;;;;;;1.20;1.10;;;17.80;99.90;;;;;;4855996;29;20047;-76
2021/05/12 10:51:22;;;;;;;1.70;1.10;;;17.80;99.90;;;;;;4841784;29;20490;-75
2021/05/12 10:54:01;;;;;;;3.17;0.95;;;17.80;99.90;;;;;;4858413;29;20026;-75
2021/05/12 10:56:37;;;;;;;0.95;0.90;;;17.70;99.90;;;;;;4858515;29;20022;-76
2021/05/12 10:59:10;;;;;;;0.95;0.70;;;17.80;99.90;;;;;;4858193;29;20264;-75
2021/05/12 11:01:52;;;;;;;0.90;0.90;;;17.90;99.90;;;;;;4856406;29;20057;-75
2021/05/12 11:04:23;;;;;;;0.93;0.93;;;17.80;99.90;;;;;;4858143;29;20034;-75
2021/05/12 11:06:49;;;;;;;3.03;0.85;;;17.90;99.90;;;;;;4853731;29;20508;-75
2021/05/12 11:09:18;;;;;;;0.85;0.70;;;18.00;99.90;;;;;;4894805;29;20072;-75
2021/05/12 11:11:44;;;;;;;0.95;0.75;;;18.10;99.90;;;;;;4875187;29;20278;-75
2021/05/12 11:14:27;;;;;;;1.17;0.70;;;18.20;99.90;;;;;;4865739;29;20041;-75
2021/05/12 11:17:09;;;;;;;1.08;0.98;;;18.20;99.90;;;;;;4889400;29;20031;-75
2021/05/12 11:19:40;;;;;;;1.48;0.93;;;18.40;99.90;;;;;;4894818;29;20048;-76
2021/05/12 11:24:58;;;;;;;1.27;0.70;;;18.50;99.90;;;;;;4891071;29;20260;-76
2021/05/12 11:32:59;;;;;;;2.50;0.70;;;18.80;99.90;;;;;;4874974;29;20094;-75
2021/05/12 11:35:25;;;;;;;0.65;0.65;;;18.80;99.90;;;;;;4875901;29;20037;-75
2021/05/12 11:37:50;;;;;;;0.50;0.50;;;18.80;99.90;;;;;;4875291;29;20025;-75
2021/05/12 11:40:16;;;;;;;1.05;0.80;;;18.80;99.90;;;;;;4876022;29;20097;-75
2021/05/12 11:42:42;;;;;;;1.10;0.70;;;18.80;99.90;;;;;;4875492;29;20037;-75
2021/05/12 11:45:17;;;;;;;2.60;0.80;;;18.80;99.90;;;;;;4858437;29;20085;-75
2021/05/12 11:47:57;;;;;;;0.90;0.70;;;18.90;99.90;;;;;;4875520;29;20025;-75
2021/05/12 11:50:29;;;;;;;0.88;0.70;;;19.00;99.90;;;;;;4858524;29;20036;-76
2021/05/12 11:52:55;;;;;;;0.77;0.77;;;19.10;99.90;;;;;;4875853;29;20033;-75
2021/05/12 11:55:29;;;;;;;2.10;1.00;;;19.10;99.90;;;;;;4858202;29;20037;-75
2021/05/12 11:57:55;;;;;;;1.10;1.00;;;19.20;99.90;;;;;;4858095;29;20029;-75
2021/05/12 12:00:27;;;;;;;3.17;1.05;;;19.20;99.90;;;;;;4875228;29;20401;-75
2021/05/12 12:03:06;;;;;;;1.02;0.80;;;19.20;99.90;;;;;;4875580;29;20036;-75
2021/05/12 12:05:44;;;;;;;0.90;0.90;;;19.50;99.90;;;;;;4858805;29;20068;-75
2021/05/12 12:08:15;;;;;;;1.05;0.98;;;19.50;99.90;;;;;;4859416;29;20052;-75
2021/05/12 12:10:42;;;;;;;1.23;1.17;;;19.50;99.90;;;;;;4879403;29;20033;-80
2021/05/12 12:13:16;;;;;;;1.35;1.15;;;19.50;99.90;;;;;;4879235;29;20033;-80
2021/05/12 12:15:47;;;;;;;1.02;1.02;;;19.60;99.90;;;;;;4878963;29;20036;-80
2021/05/12 12:18:24;;;;;;;0.90;0.90;;;19.70;99.90;;;;;;4879278;29;20026;-80
2021/05/12 12:20:50;;;;;;;3.30;1.35;;;19.70;99.90;;;;;;4879255;29;20029;-81
2021/05/12 12:23:25;;;;;;;1.42;1.25;;;19.70;99.90;;;;;;4878774;29;20493;-80
2021/05/12 12:26:15;;;;;;;1.30;1.20;;;19.80;99.90;;;;;;4879084;29;20052;-81
2021/05/12 12:28:44;;;;;;;4.50;1.55;;;19.90;99.90;;;;;;4878878;29;20032;-80
2021/05/12 12:31:49;;;;;;;3.00;1.10;;;20.20;99.90;;;;;;4862800;29;20029;-80
2021/05/12 12:34:21;;;;;;;1.58;1.30;;;20.40;99.90;;;;;;4818208;29;20068;-80
2021/05/12 12:36:57;;;;;;;1.17;1.08;;;20.80;99.90;;;;;;4878480;29;20037;-75
2021/05/12 12:39:36;;;;;;;1.45;1.27;;;20.80;99.90;;;;;;4861184;29;20097;-75
2021/05/12 12:42:02;;;;;;;1.20;1.20;;;20.70;99.70;;;;;;4877894;29;20489;-75
2021/05/12 12:44:40;;;;;;;1.63;1.33;;;20.70;99.90;;;;;;4877807;29;20053;-75
2021/05/12 12:47:14;;;;;;;1.35;1.08;;;20.80;99.70;;;;;;4877244;29;20025;-75
2021/05/12 12:49:56;;;;;;;0.80;0.80;;;20.80;99.10;;;;;;4878498;29;20032;-75
2021/05/12 12:52:31;;;;;;;;;;;21.00;99.90;;;;;;4862110;29;20065;-74
2021/05/12 12:55:11;;;;;;;5.82;1.67;;;21.10;99.90;;;;;;4878345;29;20171;-74
2021/05/12 12:57:45;;;;;;;1.70;1.60;;;21.10;99.90;;;;;;4878495;29;20051;-74
2021/05/12 13:00:12;;;;;;;1.30;1.20;;;21.00;97.80;;;;;;4878396;29;20485;-74
2021/05/12 13:02:39;;;;;;;5.15;1.48;;;21.10;98.70;;;;;;4878493;29;20088;-74
2021/05/12 13:05:19;;;;;;;2.00;1.13;;;21.20;97.80;;;;;;4878098;29;20442;-74
2021/05/12 13:07:46;;;;;;;1.33;1.30;;;21.20;96.70;;;;;;4878429;29;20044;-74
2021/05/12 13:10:27;;;;;;;1.10;1.00;;;21.20;96.80;;;;;;4879420;29;20035;-74